Time;durP1;ratioP1;P1;durP2;ratioP2;P2;SDS_P1;SDS_P2;PMS_P1;PMS_P2;Temp;Humidity;BMP_temperature;BMP_pressure;BME280_temperature;BME280_humidity;BME280_pressure;Samples;Min_cycle;Max_cycle;Signal;HPM_P1;HPM_P2
2021/09/17 00:00:24;;;;;;;0.40;0.20;;;;;;;13.66;100.00;100414.91;5012275;28;21012;-51
2021/09/17 00:02:51;;;;;;;0.40;0.20;;;;;;;13.68;100.00;100407.72;5010856;28;20511;-49
2021/09/17 00:05:18;;;;;;;1.30;1.20;;;;;;;13.78;100.00;100409.97;4999183;28;20453;-50
2021/09/17 00:07:44;;;;;;;1.30;1.30;;;;;;;13.73;100.00;100411.97;5005383;28;20832;-50
2021/09/17 00:10:12;;;;;;;0.40;0.20;;;;;;;13.69;100.00;100409.44;4993351;28;20485;-51
2021/09/17 00:12:39;;;;;;;0.73;0.70;;;;;;;13.72;100.00;100412.91;5005751;28;20460;-50
2021/09/17 00:15:07;;;;;;;0.40;0.20;;;;;;;13.63;100.00;100406.09;5009981;28;20448;-50
2021/09/17 00:17:34;;;;;;;0.50;0.50;;;;;;;13.53;100.00;100409.19;5004649;28;20522;-50
2021/09/17 00:20:00;;;;;;;0.40;0.20;;;;;;;13.41;100.00;100405.19;5002971;28;20477;-50
2021/09/17 00:22:27;;;;;;;0.40;0.30;;;;;;;13.49;100.00;100399.56;5008045;28;20449;-50
2021/09/17 00:24:54;;;;;;;0.40;0.20;;;;;;;13.44;100.00;100410.44;4997901;28;20860;-50
2021/09/17 00:27:21;;;;;;;1.93;1.13;;;;;;;13.35;100.00;100408.09;5008344;28;20475;-51
2021/09/17 00:29:48;;;;;;;0.40;0.30;;;;;;;13.54;100.00;100403.78;5001377;28;20524;-50
2021/09/17 00:32:14;;;;;;;0.77;0.77;;;;;;;13.59;100.00;100399.16;5008185;28;20453;-51
2021/09/17 00:34:41;;;;;;;0.40;0.30;;;;;;;13.36;100.00;100407.16;5009489;28;20492;-50
2021/09/17 00:37:08;;;;;;;0.40;0.20;;;;;;;13.17;100.00;100400.75;5004296;28;20456;-51
2021/09/17 00:39:34;;;;;;;0.40;0.20;;;;;;;13.01;100.00;100401.31;5002711;28;20476;-50
2021/09/17 00:42:01;;;;;;;0.50;0.47;;;;;;;13.04;100.00;100398.53;5007602;28;21078;-52
2021/09/17 00:44:28;;;;;;;0.40;0.20;;;;;;;13.02;100.00;100394.19;5009189;28;21004;-50
2021/09/17 00:46:56;;;;;;;0.50;0.40;;;;;;;12.97;100.00;100397.00;5004579;28;20480;-50
2021/09/17 00:49:24;;;;;;;0.40;0.20;;;;;;;13.03;100.00;100401.28;5002481;28;20477;-50
2021/09/17 00:51:52;;;;;;;0.40;0.30;;;;;;;12.91;100.00;100393.72;5006995;28;20457;-50
2021/09/17 00:54:19;;;;;;;0.40;0.20;;;;;;;12.88;100.00;100393.81;5009018;28;21016;-50
2021/09/17 00:56:46;;;;;;;0.40;0.20;;;;;;;12.89;100.00;100391.09;5020851;28;20449;-50
2021/09/17 00:59:13;;;;;;;1.27;1.07;;;;;;;12.82;100.00;100397.56;5015378;28;21039;-50
2021/09/17 01:01:40;;;;;;;0.40;0.30;;;;;;;12.75;100.00;100391.59;5005528;28;20452;-50
2021/09/17 01:04:08;;;;;;;0.47;0.40;;;;;;;12.83;100.00;100388.63;5003683;28;20457;-51
2021/09/17 01:06:35;;;;;;;0.40;0.20;;;;;;;12.87;100.00;100389.41;5009129;28;20515;-49
2021/09/17 01:09:03;;;;;;;0.40;0.20;;;;;;;12.91;100.00;100385.72;5007480;28;20539;-50
2021/09/17 01:11:30;;;;;;;0.40;0.20;;;;;;;12.99;100.00;100384.47;5002053;28;20448;-51
2021/09/17 01:14:02;;;;;;;0.40;0.20;;;;;;;12.90;100.00;100389.31;5002205;28;20525;-50
2021/09/17 01:16:29;;;;;;;1.30;1.30;;;;;;;12.92;100.00;100379.44;5002383;28;20507;-50
2021/09/17 01:18:56;;;;;;;0.40;0.20;;;;;;;12.90;100.00;100379.50;5001734;28;20532;-49
2021/09/17 01:21:24;;;;;;;0.40;0.20;;;;;;;12.94;100.00;100374.91;5008269;28;20450;-50
2021/09/17 01:23:51;;;;;;;0.40;0.20;;;;;;;12.93;100.00;100370.50;5008219;28;20444;-51
2021/09/17 01:26:18;;;;;;;0.40;0.40;;;;;;;12.96;100.00;100371.25;5003387;28;20462;-50
2021/09/17 01:28:45;;;;;;;3.70;2.50;;;;;;;12.74;100.00;100367.63;5010247;28;20472;-50
2021/09/17 01:31:12;;;;;;;0.40;0.20;;;;;;;12.92;100.00;100374.09;5007190;28;20508;-53
2021/09/17 01:33:38;;;;;;;0.40;0.20;;;;;;;12.93;100.00;100367.84;5008440;28;20550;-51
2021/09/17 01:36:08;;;;;;;0.40;0.20;;;;;;;12.77;100.00;100367.53;5003122;28;20953;-50
2021/09/17 01:38:37;;;;;;;0.40;0.20;;;;;;;12.72;100.00;100362.34;4999812;28;20473;-50
2021/09/17 01:41:04;;;;;;;0.40;0.40;;;;;;;12.73;100.00;100366.75;5003909;28;20456;-51
2021/09/17 01:43:31;;;;;;;0.40;0.20;;;;;;;12.89;100.00;100361.75;5001298;28;20500;-50
2021/09/17 01:45:58;;;;;;;0.40;0.20;;;;;;;12.92;100.00;100358.97;5006216;28;20453;-50
2021/09/17 01:48:26;;;;;;;0.40;0.20;;;;;;;12.84;100.00;100358.38;5007816;28;20499;-50
2021/09/17 01:50:53;;;;;;;0.40;0.20;;;;;;;12.88;100.00;100361.78;5004527;28;20457;-50
2021/09/17 01:53:20;;;;;;;0.40;0.20;;;;;;;12.89;100.00;100361.75;5001166;28;21024;-50
2021/09/17 01:55:46;;;;;;;0.40;0.20;;;;;;;12.84;100.00;100354.84;5018538;28;20497;-50
2021/09/17 01:58:13;;;;;;;0.40;0.27;;;;;;;13.04;100.00;100352.31;5020843;28;20534;-50
2021/09/17 02:00:40;;;;;;;0.40;0.20;;;;;;;13.07;100.00;100352.19;5014173;28;20456;-51
2021/09/17 02:03:07;;;;;;;0.40;0.20;;;;;;;13.17;100.00;100358.06;5014264;28;20468;-50
2021/09/17 02:05:34;;;;;;;0.40;0.20;;;;;;;13.33;100.00;100359.22;5001717;28;20514;-48
2021/09/17 02:08:01;;;;;;;0.40;0.30;;;;;;;13.31;100.00;100358.44;5000904;28;20462;-49
2021/09/17 02:10:27;;;;;;;0.40;0.20;;;;;;;13.25;100.00;100351.50;5007102;28;20465;-48
2021/09/17 02:12:54;;;;;;;0.40;0.20;;;;;;;13.33;100.00;100353.91;5007510;28;20453;-48
2021/09/17 02:15:20;;;;;;;0.40;0.20;;;;;;;13.29;100.00;100353.16;5001638;28;21012;-48
2021/09/17 02:17:47;;;;;;;0.40;0.23;;;;;;;13.36;100.00;100360.91;5000623;28;20457;-49
2021/09/17 02:20:14;;;;;;;0.40;0.30;;;;;;;13.37;100.00;100358.19;5006561;28;20478;-50
2021/09/17 02:22:41;;;;;;;0.40;0.20;;;;;;;13.50;100.00;100356.75;5007468;28;20456;-48
2021/09/17 02:25:08;;;;;;;0.50;0.50;;;;;;;13.64;100.00;100356.22;5001881;28;20449;-49
2021/09/17 02:27:34;;;;;;;0.40;0.20;;;;;;;13.75;100.00;100361.13;5000538;28;20484;-49
2021/09/17 02:30:01;;;;;;;0.50;0.50;;;;;;;13.58;100.00;100348.47;5013632;28;20993;-48
2021/09/17 02:32:28;;;;;;;0.40;0.20;;;;;;;13.76;100.00;100354.84;5000762;28;20453;-49
2021/09/17 02:34:54;;;;;;;0.40;0.20;;;;;;;13.63;100.00;100350.00;5005357;28;20564;-49
2021/09/17 02:37:21;;;;;;;0.37;0.20;;;;;;;13.56;100.00;100342.28;5006962;28;20871;-50
2021/09/17 02:39:47;;;;;;;0.40;0.20;;;;;;;13.69;100.00;100338.19;5002119;28;20520;-49
2021/09/17 02:42:14;;;;;;;0.40;0.20;;;;;;;13.77;100.00;100341.44;5000308;28;20449;-49
2021/09/17 02:44:41;;;;;;;0.40;0.20;;;;;;;13.69;100.00;100340.00;5005163;28;21090;-48
2021/09/17 02:47:08;;;;;;;0.40;0.20;;;;;;;13.66;100.00;100332.97;5006941;28;20506;-49
2021/09/17 02:49:34;;;;;;;0.30;0.20;;;;;;;13.63;100.00;100338.44;5002720;28;20472;-49
2021/09/17 02:52:01;;;;;;;0.40;0.20;;;;;;;13.74;100.00;100338.88;5000194;28;20454;-49
2021/09/17 02:54:28;;;;;;;0.40;0.20;;;;;;;13.68;100.00;100331.09;5004313;28;20548;-49
2021/09/17 02:56:55;;;;;;;0.40;0.20;;;;;;;13.71;100.00;100333.69;5023195;28;20444;-49
2021/09/17 02:59:21;;;;;;;0.40;0.20;;;;;;;13.75;100.00;100331.75;5013311;28;20465;-50
2021/09/17 03:01:48;;;;;;;0.40;0.20;;;;;;;13.80;100.00;100327.94;5006937;28;20941;-49
2021/09/17 03:04:15;;;;;;;0.37;0.20;;;;;;;13.74;100.00;100322.00;5004324;28;20943;-48
2021/09/17 03:06:41;;;;;;;0.30;0.20;;;;;;;13.60;100.00;100317.22;5006684;28;20966;-50
2021/09/17 03:09:08;;;;;;;0.40;0.20;;;;;;;13.60;100.00;100311.88;5002265;28;20550;-49
2021/09/17 03:11:35;;;;;;;0.40;0.20;;;;;;;13.46;100.00;100315.09;5000233;28;20442;-49
2021/09/17 03:14:01;;;;;;;0.37;0.20;;;;;;;13.51;100.00;100314.91;5004085;28;20493;-49
2021/09/17 03:16:28;;;;;;;0.40;0.30;;;;;;;13.54;100.00;100320.13;5006496;28;20453;-49
2021/09/17 03:18:54;;;;;;;0.40;0.30;;;;;;;13.45;100.00;100315.16;5002974;28;20503;-49
2021/09/17 03:21:21;;;;;;;0.60;0.60;;;;;;;13.52;100.00;100309.50;4999797;28;20800;-50
2021/09/17 03:23:47;;;;;;;0.40;0.20;;;;;;;13.27;100.00;100309.59;5002839;28;20453;-49
2021/09/17 03:26:19;;;;;;;0.40;0.40;;;;;;;13.22;100.00;100310.72;5006641;28;20500;-49
2021/09/17 03:28:45;;;;;;;0.40;0.20;;;;;;;13.20;100.00;100310.78;5004018;28;20543;-48
2021/09/17 03:31:12;;;;;;;0.33;0.20;;;;;;;13.15;100.00;100312.72;5008075;28;20453;-49
2021/09/17 03:33:39;;;;;;;0.40;0.20;;;;;;;13.13;100.00;100314.56;5004225;28;20499;-49
2021/09/17 03:36:06;;;;;;;0.40;0.30;;;;;;;13.18;100.00;100312.66;4999481;28;20452;-48
2021/09/17 03:38:32;;;;;;;0.40;0.30;;;;;;;13.03;100.00;100308.75;5001351;28;20528;-48
2021/09/17 03:41:06;;;;;;;0.60;0.60;;;;;;;13.09;100.00;100314.75;5005984;28;21022;-48
2021/09/17 03:43:33;;;;;;;0.40;0.30;;;;;;;13.21;100.00;100312.53;5003972;28;20472;-49
2021/09/17 03:46:00;;;;;;;0.40;0.20;;;;;;;13.19;100.00;100310.84;4999259;28;20452;-48
2021/09/17 03:48:27;;;;;;;0.40;0.20;;;;;;;13.13;100.00;100311.03;4999858;28;20477;-49
2021/09/17 03:50:53;;;;;;;0.40;0.40;;;;;;;13.35;100.00;100306.66;5006040;28;20496;-49
2021/09/17 03:53:20;;;;;;;0.40;0.20;;;;;;;13.44;100.00;100308.97;4993007;28;21013;-50
2021/09/17 03:55:47;;;;;;;0.40;0.20;;;;;;;13.50;100.00;100298.00;5012448;28;20499;-49
2021/09/17 03:58:13;;;;;;;0.40;0.20;;;;;;;13.49;100.00;100300.75;5005007;28;20472;-51
2021/09/17 04:00:40;;;;;;;0.40;0.40;;;;;;;13.60;100.00;100302.06;4999734;28;20460;-49
2021/09/17 04:03:07;;;;;;;0.37;0.30;;;;;;;13.62;100.00;100302.84;5012585;28;20453;-50
2021/09/17 04:05:33;;;;;;;0.50;0.50;;;;;;;13.49;100.00;100296.28;4998454;28;20480;-49
2021/09/17 04:08:01;;;;;;;0.93;0.70;;;;;;;13.52;100.00;100297.94;4999274;28;20446;-49
2021/09/17 04:10:28;;;;;;;0.40;0.20;;;;;;;13.72;100.00;100299.81;5012231;28;20882;-48
2021/09/17 04:12:54;;;;;;;0.40;0.20;;;;;;;13.70;100.00;100299.84;4999438;28;20555;-49
2021/09/17 04:15:21;;;;;;;0.30;0.20;;;;;;;13.67;100.00;100307.13;5004793;28;20532;-49
2021/09/17 04:17:49;;;;;;;0.53;0.53;;;;;;;13.64;100.00;100298.31;5005658;28;20510;-49
2021/09/17 04:20:19;;;;;;;0.40;0.20;;;;;;;13.62;100.00;100304.66;5001023;28;20459;-48
2021/09/17 04:22:46;;;;;;;0.80;0.80;;;;;;;13.60;100.00;100310.06;4999169;28;20453;-49
2021/09/17 04:25:13;;;;;;;0.30;0.20;;;;;;;13.65;100.00;100304.53;5003834;28;20445;-49
2021/09/17 04:27:43;;;;;;;0.80;0.80;;;;;;;13.69;100.00;100300.78;5006809;28;20449;-50
2021/09/17 04:30:13;;;;;;;0.40;0.20;;;;;;;13.70;100.00;100307.88;5012124;28;20560;-49
2021/09/17 04:32:41;;;;;;;0.40;0.20;;;;;;;13.80;100.00;100301.22;4998877;28;21032;-49
2021/09/17 04:35:08;;;;;;;0.87;0.87;;;;;;;13.75;100.00;100303.22;5002092;28;20500;-48
2021/09/17 04:37:39;;;;;;;0.40;0.20;;;;;;;13.57;100.00;100302.19;5005916;28;20453;-50
2021/09/17 04:40:06;;;;;;;0.73;0.73;;;;;;;13.57;100.00;100299.53;5003485;28;20469;-49
2021/09/17 04:42:33;;;;;;;1.10;1.10;;;;;;;13.43;100.00;100296.53;4998760;28;20460;-49
2021/09/17 04:45:00;;;;;;;0.33;0.20;;;;;;;13.43;100.00;100298.31;5000759;28;20508;-49
2021/09/17 04:47:27;;;;;;;0.40;0.30;;;;;;;13.48;100.00;100291.88;5005302;28;20489;-49
2021/09/17 04:49:53;;;;;;;1.17;1.17;;;;;;;13.56;100.00;100292.41;5003732;28;21071;-49
2021/09/17 04:52:40;;;;;;;0.40;0.20;;;;;;;13.59;100.00;100303.00;5000150;28;20477;-49
2021/09/17 04:55:07;;;;;;;0.30;0.20;;;;;;;13.47;100.00;100292.81;5000368;28;20489;-49
2021/09/17 04:57:34;;;;;;;0.50;0.37;;;;;;;13.44;100.00;100295.59;5023827;28;20946;-48
2021/09/17 05:00:00;;;;;;;0.30;0.20;;;;;;;13.41;100.00;100300.16;5013637;28;20994;-49
2021/09/17 05:02:27;;;;;;;0.40;0.20;;;;;;;13.47;100.00;100306.16;5010297;28;20487;-49
2021/09/17 05:04:54;;;;;;;2.30;2.20;;;;;;;13.43;100.00;100299.22;5001970;28;20457;-49
2021/09/17 05:07:20;;;;;;;0.50;0.50;;;;;;;13.32;100.00;100304.97;5016598;28;20526;-51
2021/09/17 05:09:47;;;;;;;0.30;0.20;;;;;;;13.36;100.00;100305.72;5014522;28;20476;-51
2021/09/17 05:12:14;;;;;;;1.50;1.40;;;;;;;13.27;100.00;100304.25;5003322;28;20508;-51
2021/09/17 05:14:41;;;;;;;0.40;0.20;;;;;;;13.18;100.00;100303.75;5001966;28;20844;-51
2021/09/17 05:17:07;;;;;;;0.40;0.20;;;;;;;13.03;100.00;100307.88;5006900;28;20504;-51
2021/09/17 05:19:34;;;;;;;3.70;3.47;;;;;;;12.99;100.00;100308.91;5008107;28;20505;-51
2021/09/17 05:22:00;;;;;;;0.40;0.30;;;;;;;12.95;100.00;100313.50;5003635;28;20448;-51
2021/09/17 05:24:27;;;;;;;0.80;0.40;;;;;;;12.96;100.00;100319.69;5001708;28;20453;-51
2021/09/17 05:26:54;;;;;;;0.70;0.67;;;;;;;12.95;100.00;100315.28;5006263;28;20822;-51
2021/09/17 05:29:20;;;;;;;0.40;0.30;;;;;;;12.89;100.00;100310.19;5010320;28;20480;-51
2021/09/17 05:31:47;;;;;;;1.80;1.23;;;;;;;12.81;100.00;100314.94;5006055;28;20507;-51
2021/09/17 05:34:14;;;;;;;0.83;0.83;;;;;;;12.79;100.00;100314.13;5008245;28;20460;-51
2021/09/17 05:36:41;;;;;;;0.40;0.20;;;;;;;12.87;100.00;100317.38;5003884;28;20457;-51
2021/09/17 05:39:08;;;;;;;0.30;0.20;;;;;;;12.80;100.00;100323.88;4998929;28;20481;-51
2021/09/17 05:41:34;;;;;;;0.80;0.80;;;;;;;12.89;100.00;100318.19;5004102;28;20874;-51
2021/09/17 05:44:01;;;;;;;0.40;0.20;;;;;;;12.89;100.00;100326.22;5001369;28;20461;-51
2021/09/17 05:46:28;;;;;;;0.40;0.20;;;;;;;12.93;100.00;100328.69;5005397;28;20532;-51
2021/09/17 05:48:54;;;;;;;1.07;0.60;;;;;;;12.96;100.00;100317.91;5007995;28;20473;-51
2021/09/17 05:51:21;;;;;;;6.07;2.20;;;;;;;12.98;100.00;100317.84;5004241;28;20507;-51
2021/09/17 05:54:04;;;;;;;0.30;0.20;;;;;;;13.18;100.00;100326.00;5001381;28;20556;-51
2021/09/17 05:56:31;;;;;;;0.37;0.20;;;;;;;13.09;100.00;100326.31;5027194;28;20799;-51
2021/09/17 05:58:58;;;;;;;0.63;0.63;;;;;;;13.18;100.00;100327.75;5014405;28;20472;-51
2021/09/17 06:01:24;;;;;;;0.30;0.20;;;;;;;13.20;100.00;100329.47;5007976;28;20452;-51
2021/09/17 06:03:51;;;;;;;0.40;0.20;;;;;;;13.32;100.00;100331.66;5007964;28;20454;-51
2021/09/17 06:06:18;;;;;;;0.40;0.20;;;;;;;13.14;100.00;100329.66;5007338;28;20448;-51
2021/09/17 06:08:45;;;;;;;0.40;0.20;;;;;;;13.17;100.00;100331.38;5006495;28;20477;-51
2021/09/17 06:11:12;;;;;;;0.40;0.30;;;;;;;13.18;100.00;100323.31;5007914;28;20449;-52
2021/09/17 06:13:38;;;;;;;0.30;0.20;;;;;;;13.19;100.00;100327.72;5001119;28;20459;-51
2021/09/17 06:16:05;;;;;;;0.40;0.20;;;;;;;13.40;100.00;100323.34;5001053;28;20521;-52
2021/09/17 06:18:40;;;;;;;0.30;0.20;;;;;;;13.45;100.00;100325.84;5013816;28;20884;-52
2021/09/17 06:21:08;;;;;;;0.30;0.20;;;;;;;13.54;100.00;100330.78;5001126;28;20454;-52
2021/09/17 06:23:34;;;;;;;0.40;0.40;;;;;;;13.59;100.00;100323.50;5005582;28;20449;-52
2021/09/17 06:26:01;;;;;;;0.50;0.50;;;;;;;13.71;100.00;100324.81;5007341;28;21019;-51
2021/09/17 06:28:28;;;;;;;2.20;1.53;;;;;;;13.75;100.00;100324.59;5003032;28;20472;-52
2021/09/17 06:30:54;;;;;;;0.40;0.30;;;;;;;13.84;100.00;100324.22;5026564;28;20452;-52
2021/09/17 06:33:21;;;;;;;0.40;0.30;;;;;;;13.92;100.00;100330.09;5002935;28;20449;-52
2021/09/17 06:35:48;;;;;;;0.30;0.20;;;;;;;14.05;100.00;100333.13;5000335;28;20998;-52
2021/09/17 06:38:14;;;;;;;0.50;0.47;;;;;;;14.21;100.00;100331.53;5004493;28;20483;-52
2021/09/17 06:40:41;;;;;;;0.37;0.20;;;;;;;14.32;100.00;100336.44;5007041;28;20457;-52
2021/09/17 06:43:07;;;;;;;0.60;0.57;;;;;;;14.42;100.00;100332.44;5003331;28;20449;-52
2021/09/17 06:45:34;;;;;;;0.40;0.20;;;;;;;14.47;100.00;100338.47;4999034;28;20499;-52
2021/09/17 06:48:01;;;;;;;0.77;0.77;;;;;;;14.60;100.00;100335.25;5003750;28;20500;-52
2021/09/17 06:50:29;;;;;;;0.50;0.40;;;;;;;14.74;100.00;100328.34;5006712;28;20508;-52
2021/09/17 06:52:57;;;;;;;4.47;0.97;;;;;;;14.81;100.00;100328.97;5004209;28;20448;-52
2021/09/17 06:55:26;;;;;;;0.40;0.30;;;;;;;14.99;100.00;100324.56;5003161;28;21019;-52
2021/09/17 06:57:59;;;;;;;0.40;0.30;;;;;;;15.23;100.00;100325.25;5021201;28;20860;-52
2021/09/17 07:00:29;;;;;;;0.40;0.30;;;;;;;15.26;100.00;100325.97;5008036;28;20482;-52
2021/09/17 07:02:56;;;;;;;0.40;0.20;;;;;;;15.33;100.00;100319.34;5012081;28;20449;-52
2021/09/17 07:05:24;;;;;;;0.40;0.20;;;;;;;15.55;100.00;100319.19;5000309;28;20452;-52
2021/09/17 07:07:51;;;;;;;0.40;0.20;;;;;;;15.73;100.00;100325.50;5000509;28;20880;-52
2021/09/17 07:10:22;;;;;;;0.40;0.20;;;;;;;15.89;100.00;100314.88;4999922;28;20945;-52
2021/09/17 07:12:48;;;;;;;0.40;0.40;;;;;;;16.29;100.00;100322.63;4998729;28;20450;-52
2021/09/17 07:15:17;;;;;;;0.40;0.37;;;;;;;16.20;100.00;100311.53;5006151;28;20532;-53
2021/09/17 07:17:44;;;;;;;0.40;0.20;;;;;;;16.33;100.00;100318.00;5006594;28;20453;-52
2021/09/17 07:20:11;;;;;;;2.77;0.93;;;;;;;16.96;100.00;100317.34;5000927;28;20595;-52
2021/09/17 07:22:38;;;;;;;0.40;0.20;;;;;;;16.99;100.00;100325.25;4999225;28;20449;-52
2021/09/17 07:25:06;;;;;;;0.40;0.20;;;;;;;16.67;100.00;100319.78;5005102;28;20446;-52
2021/09/17 07:27:33;;;;;;;1.50;1.50;;;;;;;16.65;100.00;100312.75;5006495;28;20519;-52
2021/09/17 07:30:00;;;;;;;0.40;0.33;;;;;;;16.55;100.00;100318.59;5012558;28;20985;-52
2021/09/17 07:32:26;;;;;;;0.43;0.37;;;;;;;16.74;100.00;100312.31;4999484;28;21106;-51
2021/09/17 07:34:54;;;;;;;0.50;0.30;;;;;;;17.15;100.00;100320.78;5005171;28;20493;-52
2021/09/17 07:37:23;;;;;;;0.50;0.50;;;;;;;17.08;100.00;100311.31;5006208;28;20869;-52
2021/09/17 07:39:50;;;;;;;0.40;0.30;;;;;;;16.60;100.00;100313.00;5001675;28;20816;-52
2021/09/17 07:42:17;;;;;;;0.40;0.30;;;;;;;16.95;100.00;100310.25;4998941;28;20514;-52
2021/09/17 07:44:44;;;;;;;0.40;0.20;;;;;;;17.20;100.00;100309.78;5004218;28;20453;-52
2021/09/17 07:47:10;;;;;;;0.40;0.20;;;;;;;16.87;100.00;100314.25;5005998;28;20457;-52
2021/09/17 07:49:37;;;;;;;9.80;1.80;;;;;;;16.71;100.00;100317.81;5002176;28;20468;-51
2021/09/17 07:52:04;;;;;;;0.40;0.20;;;;;;;16.95;100.00;100311.13;4999483;28;20503;-52
2021/09/17 07:54:31;;;;;;;0.40;0.20;;;;;;;17.30;100.00;100311.00;5003329;28;20919;-52
2021/09/17 07:56:58;;;;;;;4.00;0.70;;;;;;;17.72;100.00;100310.41;5022427;28;20505;-52
2021/09/17 07:59:26;;;;;;;2.83;1.90;;;;;;;17.51;100.00;100306.22;5012334;28;20901;-52
2021/09/17 08:01:53;;;;;;;0.93;0.93;;;;;;;17.40;100.00;100307.69;5006203;28;20451;-52
2021/09/17 08:04:20;;;;;;;0.40;0.30;;;;;;;17.75;100.00;100319.16;5001573;28;20449;-52
2021/09/17 08:06:47;;;;;;;0.40;0.20;;;;;;;17.51;100.00;100312.47;5005835;28;20460;-52
2021/09/17 08:09:13;;;;;;;0.57;0.57;;;;;;;17.46;100.00;100318.13;5002569;28;20567;-52
2021/09/17 08:11:40;;;;;;;0.40;0.20;;;;;;;17.73;100.00;100317.53;4997710;28;20540;-56
2021/09/17 08:14:07;;;;;;;0.73;0.73;;;;;;;17.97;100.00;100312.56;5002822;28;20460;-53
2021/09/17 08:16:34;;;;;;;0.60;0.60;;;;;;;18.01;100.00;100319.47;4998847;28;20894;-53
2021/09/17 08:19:01;;;;;;;0.40;0.20;;;;;;;18.28;100.00;100323.22;5002418;28;20477;-53
2021/09/17 08:21:28;;;;;;;0.40;0.20;;;;;;;18.58;98.79;100322.31;5005609;28;20459;-52
2021/09/17 08:23:54;;;;;;;0.40;0.20;;;;;;;18.56;98.62;100327.81;5002422;28;20448;-53
2021/09/17 08:26:21;;;;;;;0.40;0.30;;;;;;;18.70;98.44;100320.75;4999024;28;20930;-53
2021/09/17 08:28:47;;;;;;;0.57;0.50;;;;;;;18.68;96.89;100325.34;5011975;28;20443;-53
2021/09/17 08:31:14;;;;;;;0.40;0.30;;;;;;;18.98;95.49;100328.84;4999000;28;20477;-53
2021/09/17 08:33:42;;;;;;;0.60;0.60;;;;;;;19.30;94.39;100324.09;5002958;28;20456;-53
2021/09/17 08:36:09;;;;;;;0.50;0.40;;;;;;;19.38;93.59;100320.91;5009167;28;20990;-53
2021/09/17 08:38:37;;;;;;;0.40;0.30;;;;;;;18.56;96.52;100327.81;5006316;28;20913;-52
2021/09/17 08:41:04;;;;;;;0.50;0.50;;;;;;;19.06;94.10;100322.97;5002648;28;20510;-54
2021/09/17 08:43:31;;;;;;;0.67;0.67;;;;;;;19.60;92.98;100317.69;5005571;28;20943;-53
2021/09/17 08:45:58;;;;;;;1.43;1.43;;;;;;;18.86;94.41;100325.06;5009545;28;20456;-53
2021/09/17 08:48:27;;;;;;;5.80;0.97;;;;;;;18.81;94.85;100326.34;5006539;28;20439;-53
2021/09/17 08:50:56;;;;;;;0.50;0.40;;;;;;;18.78;95.30;100319.31;5001304;28;20452;-54
2021/09/17 08:53:24;;;;;;;1.40;1.40;;;;;;;18.93;95.58;100323.75;5015853;28;20507;-53
2021/09/17 08:55:51;;;;;;;0.50;0.37;;;;;;;19.12;93.19;100322.56;5012242;28;20483;-53
2021/09/17 08:58:18;;;;;;;1.17;0.73;;;;;;;18.95;94.74;100320.94;5021358;28;20468;-53
2021/09/17 09:00:45;;;;;;;0.40;0.40;;;;;;;19.03;94.39;100324.00;5009245;28;20453;-53
2021/09/17 09:03:27;;;;;;;0.40;0.20;;;;;;;19.12;94.35;100322.56;5014535;28;20456;-53
2021/09/17 09:05:54;;;;;;;0.40;0.20;;;;;;;19.28;93.99;100319.75;5005262;28;20445;-53
2021/09/17 09:08:24;;;;;;;0.40;0.20;;;;;;;19.28;93.64;100307.16;5001962;28;20973;-52
2021/09/17 09:10:50;;;;;;;0.40;0.30;;;;;;;19.16;92.59;100314.19;5005147;28;20869;-53
2021/09/17 09:13:17;;;;;;;0.60;0.60;;;;;;;19.44;91.76;100318.66;5008653;28;20839;-53
2021/09/17 09:15:44;;;;;;;0.40;0.23;;;;;;;19.51;91.28;100309.22;5005705;28;20547;-52
2021/09/17 09:18:12;;;;;;;0.40;0.40;;;;;;;19.75;90.78;100308.63;5001815;28;20476;-53
2021/09/17 09:20:41;;;;;;;0.40;0.30;;;;;;;20.38;89.58;100307.94;5004620;28;20954;-53
2021/09/17 09:23:22;;;;;;;0.60;0.60;;;;;;;20.43;88.30;100299.56;5008553;28;20496;-53
2021/09/17 09:26:01;;;;;;;0.40;0.30;;;;;;;20.04;89.08;100299.44;5008382;28;20828;-53
2021/09/17 09:28:32;;;;;;;1.03;0.70;;;;;;;20.32;88.43;100300.25;5015506;28;20476;-53
2021/09/17 09:31:08;;;;;;;0.50;0.47;;;;;;;20.21;87.73;100306.38;5012836;28;20875;-53
2021/09/17 09:33:46;;;;;;;0.40;0.20;;;;;;;20.71;87.25;100304.75;5005481;28;21019;-53
2021/09/17 09:36:18;;;;;;;0.40;0.23;;;;;;;20.43;87.24;100300.41;5001419;28;20523;-53
2021/09/17 09:38:48;;;;;;;0.40;0.30;;;;;;;20.35;87.10;100295.50;5001787;28;20552;-53
2021/09/17 09:41:16;;;;;;;0.40;0.20;;;;;;;20.22;85.38;100297.31;5002195;28;20452;-53
2021/09/17 09:43:56;;;;;;;0.50;0.30;;;;;;;20.36;85.08;100288.25;5000368;28;20432;-53
2021/09/17 09:46:31;;;;;;;0.60;0.53;;;;;;;20.25;85.19;100290.84;5005621;28;20449;-53
2021/09/17 09:49:22;;;;;;;0.40;0.20;;;;;;;20.26;84.88;100293.44;5007967;28;20496;-53
2021/09/17 09:52:06;;;;;;;0.43;0.37;;;;;;;20.58;85.24;100293.94;5007959;28;20540;-53
2021/09/17 09:54:34;;;;;;;0.40;0.20;;;;;;;21.21;83.93;100297.56;5004263;28;20599;-52
2021/09/17 09:57:03;;;;;;;0.40;0.20;;;;;;;20.93;84.00;100291.44;5027826;28;20559;-53
2021/09/17 09:59:32;;;;;;;0.50;0.50;;;;;;;20.65;83.47;100283.56;5014102;28;20509;-53
2021/09/17 10:02:02;;;;;;;3.13;1.83;;;;;;;20.79;83.24;100285.28;5008012;28;20428;-53
2021/09/17 10:04:31;;;;;;;0.40;0.20;;;;;;;21.23;83.13;100284.78;5003253;28;20428;-53
2021/09/17 10:07:03;;;;;;;0.40;0.20;;;;;;;21.49;81.33;100278.38;5008047;28;20461;-53
2021/09/17 10:09:32;;;;;;;0.40;0.20;;;;;;;21.46;80.58;100277.72;5006537;28;20451;-53
2021/09/17 10:11:59;;;;;;;0.50;0.40;;;;;;;21.23;80.00;100282.94;5000815;28;20452;-53
2021/09/17 10:14:28;;;;;;;0.40;0.30;;;;;;;20.74;82.55;100282.94;5001907;28;20486;-53
2021/09/17 10:16:59;;;;;;;1.93;1.53;;;;;;;20.78;82.93;100279.03;5007428;28;20998;-53
2021/09/17 10:19:26;;;;;;;0.43;0.30;;;;;;;21.21;82.05;100275.94;5007722;28;20552;-53
2021/09/17 10:22:01;;;;;;;0.40;0.20;;;;;;;21.28;81.49;100274.56;5001086;28;20565;-53
2021/09/17 10:24:27;;;;;;;0.73;0.73;;;;;;;21.65;80.12;100280.78;5000907;28;20498;-53
2021/09/17 10:26:57;;;;;;;1.23;1.23;;;;;;;21.63;78.50;100280.03;5005648;28;20806;-53
2021/09/17 10:29:55;;;;;;;0.40;0.30;;;;;;;21.62;78.79;100274.75;5009389;28;20468;-54
2021/09/17 10:32:27;;;;;;;0.40;0.20;;;;;;;21.96;80.22;100270.38;5000967;28;20452;-53
2021/09/17 10:35:40;;;;;;;0.50;0.40;;;;;;;21.28;79.56;100271.84;5001146;28;20427;-52
2021/09/17 10:38:15;;;;;;;0.50;0.40;;;;;;;21.92;78.07;100271.56;4984651;28;20469;-53
2021/09/17 10:41:05;;;;;;;0.40;0.20;;;;;;;21.43;78.71;100272.56;5006993;28;20426;-53
2021/09/17 10:43:38;;;;;;;0.40;0.40;;;;;;;21.50;79.07;100263.84;5000112;28;20514;-53
2021/09/17 10:46:21;;;;;;;0.40;0.23;;;;;;;21.53;78.89;100270.91;5001138;28;20927;-53
2021/09/17 10:48:56;;;;;;;1.13;1.13;;;;;;;22.05;77.27;100267.84;5000135;28;20506;-53
2021/09/17 10:51:35;;;;;;;0.50;0.50;;;;;;;21.84;76.35;100262.19;5004441;28;21014;-53
2021/09/17 10:54:09;;;;;;;2.53;1.07;;;;;;;22.00;76.88;100263.75;5006698;28;20449;-53
2021/09/17 10:56:48;;;;;;;0.40;0.20;;;;;;;21.78;77.15;100253.66;5019900;28;20488;-53
2021/09/17 10:59:22;;;;;;;0.40;0.30;;;;;;;22.26;74.63;100257.22;5007431;28;20872;-53
2021/09/17 11:01:58;;;;;;;0.40;0.30;;;;;;;21.85;75.51;100260.34;5006865;28;21067;-53
2021/09/17 11:04:30;;;;;;;0.50;0.40;;;;;;;22.12;75.12;100261.00;5002426;28;20821;-53
2021/09/17 11:07:21;;;;;;;0.53;0.47;;;;;;;22.26;74.13;100264.47;5006796;28;20446;-53
2021/09/17 11:09:50;;;;;;;0.50;0.50;;;;;;;22.39;73.97;100259.84;5006918;28;20480;-49
2021/09/17 11:12:20;;;;;;;2.30;0.70;;;;;;;22.17;74.08;100261.47;5002368;28;20431;-49
2021/09/17 11:15:18;;;;;;;0.50;0.50;;;;;;;21.87;73.65;100252.97;4999666;28;20881;-49
2021/09/17 11:17:56;;;;;;;0.50;0.40;;;;;;;21.63;73.51;100254.81;4987905;28;20854;-49
2021/09/17 11:20:25;;;;;;;1.70;0.60;;;;;;;21.62;73.61;100253.97;5004540;28;20961;-49
2021/09/17 11:23:04;;;;;;;0.40;0.20;;;;;;;21.92;75.37;100258.91;5006308;28;20427;-50
2021/09/17 11:25:34;;;;;;;0.40;0.20;;;;;;;22.28;71.87;100251.69;5004206;28;20419;-50